Time;durP1;ratioP1;P1;durP2;ratioP2;P2;SDS_P1;SDS_P2;PMS_P1;PMS_P2;Temp;Humidity;BMP_temperature;BMP_pressure;BME280_temperature;BME280_humidity;BME280_pressure;Samples;Min_cycle;Max_cycle;Signal;HPM_P1;HPM_P2
2022/02/10 00:03:32;;;;;;;20.37;7.37;;;;;;;4.31;100.00;100654.09;7390245;19;20381;-58
2022/02/10 00:06:28;;;;;;;19.10;7.83;;;;;;;4.30;100.00;100650.66;7385575;19;20420;-58
2022/02/10 00:14:46;;;;;;;26.00;9.23;;;;;;;4.29;100.00;100642.88;7395930;19;21006;-59
2022/02/10 00:17:30;;;;;;;24.83;8.40;;;;;;;4.25;100.00;100633.28;7397210;19;20431;-55
2022/02/10 00:23:01;;;;;;;23.27;8.40;;;;;;;4.25;100.00;100630.72;7395247;19;20969;-58
2022/02/10 00:36:40;;;;;;;25.23;7.03;;;;;;;4.29;100.00;100623.34;7388050;19;20411;-57
2022/02/10 00:39:25;;;;;;;29.90;7.80;;;;;;;4.33;100.00;100624.44;7395806;19;20407;-53
2022/02/10 00:41:55;;;;;;;21.87;8.40;;;;;;;4.35;100.00;100629.66;7393845;19;20416;-58
2022/02/10 00:44:27;;;;;;;17.47;8.30;;;;;;;4.31;100.00;100623.44;7394934;19;20388;-57
2022/02/10 00:46:57;;;;;;;23.90;8.47;;;;;;;4.30;100.00;100619.09;7393171;19;20956;-53
2022/02/10 00:49:26;;;;;;;17.33;8.13;;;;;;;4.35;100.00;100627.09;7395438;19;20757;-58
2022/02/10 00:51:56;;;;;;;27.50;9.80;;;;;;;4.35;100.00;100620.28;7392326;19;20417;-54
2022/02/10 00:54:27;;;;;;;32.90;9.00;;;;;;;4.36;100.00;100622.06;7396279;19;20385;-57
2022/02/10 00:56:58;;;;;;;60.80;11.40;;;;;;;4.42;100.00;100619.91;7393461;19;20419;-58
2022/02/10 00:59:40;;;;;;;27.00;9.27;;;;;;;4.42;100.00;100621.59;7396934;19;20524;-58
2022/02/10 01:06:58;;;;;;;28.80;9.90;;;;;;;4.42;100.00;100619.91;7393062;19;20409;-53
2022/02/10 01:10:56;;;;;;;25.47;11.07;;;;;;;4.53;100.00;100622.28;7387954;19;20523;-58
2022/02/10 01:13:45;;;;;;;31.63;9.90;;;;;;;4.52;100.00;100620.50;7396780;19;20389;-58
2022/02/10 01:24:31;;;;;;;45.50;19.90;;;;;;;4.96;100.00;100584.06;7394406;19;20393;-56
2022/02/10 01:29:45;;;;;;;33.40;12.30;;;;;;;4.88;100.00;100585.28;7392967;19;20483;-58
2022/02/10 01:32:18;;;;;;;32.60;12.77;;;;;;;4.81;100.00;100581.44;7392227;19;20957;-57
2022/02/10 01:34:51;;;;;;;28.27;10.60;;;;;;;4.80;100.00;100577.13;7395653;19;20381;-57
2022/02/10 01:37:22;;;;;;;31.73;13.20;;;;;;;4.79;100.00;100574.47;7392604;19;20974;-55
2022/02/10 01:39:56;;;;;;;42.37;13.47;;;;;;;4.78;100.00;100571.03;7396264;19;20423;-55
2022/02/10 02:03:18;;;;;;;39.63;13.73;;;;;;;4.91;100.00;100526.66;7394243;19;20406;-55
2022/02/10 02:04:25;;;;;;;30.20;13.80;;;;;;;4.98;100.00;100520.25;7393594;19;20400;-56
2022/02/10 02:06:57;;;;;;;37.80;13.67;;;;;;;5.00;100.00;100517.00;7391590;19;20420;-57
2022/02/10 02:09:26;;;;;;;37.97;13.57;;;;;;;5.01;100.00;100510.19;7392790;19;20426;-58
2022/02/10 02:11:57;;;;;;;35.93;13.10;;;;;;;4.99;100.00;100512.66;7390366;19;20406;-58
2022/02/10 02:14:28;;;;;;;36.87;13.50;;;;;;;5.03;100.00;100503.47;7394099;19;20396;-57
2022/02/10 02:17:00;;;;;;;35.77;14.50;;;;;;;4.99;100.00;100507.53;7390057;19;20448;-54
2022/02/10 02:19:34;;;;;;;44.07;13.30;;;;;;;5.03;100.00;100502.63;7392225;19;20954;-57
2022/02/10 02:22:07;;;;;;;35.30;14.13;;;;;;;4.99;100.00;100491.31;7390169;19;20416;-58
2022/02/10 02:24:37;;;;;;;35.77;13.90;;;;;;;4.99;100.00;100497.28;7392935;19;20390;-56
2022/02/10 02:27:09;;;;;;;30.53;11.90;;;;;;;4.94;100.00;100493.59;7390145;19;20417;-57
2022/02/10 02:29:43;;;;;;;31.03;11.87;;;;;;;4.90;100.00;100486.53;7392436;19;20433;-57
2022/02/10 02:32:20;;;;;;;37.40;11.77;;;;;;;4.95;100.00;100476.56;7389491;19;20413;-57
2022/02/10 03:05:11;;;;;;;18.87;8.60;;;;;;;5.07;100.00;100494.34;7392009;19;20385;-57
2022/02/10 03:07:47;;;;;;;24.73;8.27;;;;;;;5.01;100.00;100489.72;7392024;19;20404;-57
2022/02/10 03:10:52;;;;;;;24.03;9.20;;;;;;;5.07;100.00;100500.31;7388805;19;20413;-55
2022/02/10 03:13:26;;;;;;;26.27;7.43;;;;;;;5.05;100.00;100516.38;7393139;19;20398;-54
2022/02/10 03:16:09;;;;;;;28.37;7.60;;;;;;;5.07;100.00;100509.69;7389336;19;20411;-59
2022/02/10 03:18:45;;;;;;;24.37;8.37;;;;;;;5.00;100.00;100516.09;7391981;19;20463;-56
2022/02/10 03:21:41;;;;;;;14.33;5.13;;;;;;;4.92;100.00;100520.75;7389740;19;20493;-57
2022/02/10 04:05:12;;;;;;;9.73;5.30;;;;;;;4.68;100.00;100480.09;7400912;19;20417;-58
2022/02/10 04:07:54;;;;;;;15.90;6.10;;;;;;;4.76;100.00;100472.91;7397880;19;20412;-58
2022/02/10 04:10:44;;;;;;;19.67;6.03;;;;;;;4.84;100.00;100466.59;7393168;19;20757;-58
2022/02/10 04:13:35;;;;;;;21.30;7.73;;;;;;;4.94;100.00;100467.16;7398905;19;20913;-59
2022/02/10 04:16:14;;;;;;;19.37;7.50;;;;;;;4.85;100.00;100452.13;7393845;19;20412;-58
2022/02/10 04:19:30;;;;;;;15.93;7.07;;;;;;;4.90;100.00;100460.97;7397382;19;20737;-58
2022/02/10 04:21:57;;;;;;;23.00;7.07;;;;;;;5.07;100.00;100454.28;7397031;19;20447;-56
2022/02/10 04:24:42;;;;;;;19.83;8.67;;;;;;;5.23;100.00;100443.28;7397755;19;20380;-58
2022/02/10 04:27:20;;;;;;;22.20;8.40;;;;;;;5.06;100.00;100438.84;7395523;19;20420;-55
2022/02/10 04:37:26;;;;;;;22.00;9.07;;;;;;;4.89;100.00;100442.97;7397372;19;20425;-59
2022/02/10 04:38:43;;;;;;;20.47;10.17;;;;;;;4.87;100.00;100435.19;7396469;19;20399;-58
2022/02/10 04:44:29;;;;;;;22.20;9.47;;;;;;;5.35;100.00;100414.09;7397021;19;20390;-57
2022/02/10 04:55:40;;;;;;;18.80;8.40;;;;;;;4.85;100.00;100432.56;7394069;19;20409;-58
2022/02/10 04:58:30;;;;;;;20.23;7.80;;;;;;;4.78;100.00;100429.56;7395933;19;20384;-59
2022/02/10 05:01:18;;;;;;;23.10;7.03;;;;;;;4.73;100.00;100424.16;7393091;19;20428;-54
2022/02/10 05:13:06;;;;;;;21.00;8.50;;;;;;;4.73;100.00;100399.47;7390414;19;20519;-58
2022/02/10 05:18:21;;;;;;;18.83;8.67;;;;;;;4.75;100.00;100394.47;7394378;19;20413;-58
2022/02/10 05:23:56;;;;;;;26.10;9.37;;;;;;;4.77;100.00;100377.53;7396045;19;20914;-52
2022/02/10 05:32:14;;;;;;;27.47;10.50;;;;;;;4.83;100.00;100371.91;7388996;19;20488;-58
2022/02/10 05:34:49;;;;;;;24.83;9.60;;;;;;;4.73;100.00;100381.59;7396108;19;20726;-58
2022/02/10 05:37:20;;;;;;;20.87;9.00;;;;;;;4.84;100.00;100364.34;7393047;19;20409;-53
2022/02/10 05:39:56;;;;;;;32.47;14.23;;;;;;;4.84;100.00;100366.00;7393878;19;20410;-55
2022/02/10 05:45:15;;;;;;;27.70;10.20;;;;;;;4.80;100.00;100362.38;7391913;19;20389;-56
2022/02/10 05:50:59;;;;;;;22.47;9.80;;;;;;;4.78;100.00;100361.44;7388951;19;20426;-57
2022/02/10 05:53:50;;;;;;;40.57;18.27;;;;;;;4.79;100.00;100364.84;7395015;19;20387;-57
2022/02/10 05:56:34;;;;;;;22.93;11.37;;;;;;;4.83;100.00;100351.47;7389817;19;20768;-56
2022/02/10 06:54:09;;;;;;;27.97;13.50;;;;;;;4.82;100.00;100322.44;7393001;19;20398;-58
2022/02/10 06:57:08;;;;;;;33.37;15.53;;;;;;;4.81;100.00;100324.91;7389505;19;20493;-58
2022/02/10 07:03:00;;;;;;;20.83;10.13;;;;;;;4.75;100.00;100322.00;7388573;19;20415;-57
2022/02/10 07:05:51;;;;;;;21.37;9.97;;;;;;;4.77;100.00;100323.00;7389707;19;20418;-54
2022/02/10 07:08:36;;;;;;;23.50;10.40;;;;;;;4.73;100.00;100330.47;7391870;19;20385;-57
2022/02/10 07:11:23;;;;;;;17.00;9.07;;;;;;;4.66;100.00;100325.78;7389630;19;20421;-58
2022/02/10 07:58:19;;;;;;;20.20;9.13;;;;;;;4.94;100.00;100334.19;7399265;19;20448;-56
2022/02/10 08:04:22;;;;;;;20.97;8.93;;;;;;;4.96;100.00;100347.94;7387369;19;20767;-58
2022/02/10 08:50:16;;;;;;;17.50;8.40;;;;;;;5.02;100.00;100378.09;7392122;19;20963;-64
2022/02/10 08:53:39;;;;;;;14.53;5.97;;;;;;;4.93;100.00;100381.88;7396167;19;20970;-57
2022/02/10 08:55:56;;;;;;;11.20;5.90;;;;;;;4.87;100.00;100394.28;7394160;19;20412;-57
2022/02/10 09:04:04;;;;;;;13.53;6.00;;;;;;;4.81;100.00;100401.59;7397040;19;20909;-56
2022/02/10 09:06:56;;;;;;;11.67;6.60;;;;;;;4.76;100.00;100405.59;7392674;19;20506;-57
2022/02/10 09:09:55;;;;;;;15.20;6.37;;;;;;;4.68;100.00;100405.97;7395260;19;20409;-57
2022/02/10 09:12:45;;;;;;;14.50;7.00;;;;;;;4.85;100.00;100408.66;7393163;19;20419;-58
2022/02/10 09:15:38;;;;;;;14.07;6.40;;;;;;;4.82;100.00;100413.63;7394070;19;20388;-58
2022/02/10 09:18:37;;;;;;;15.73;6.27;;;;;;;4.90;100.00;100407.28;7396785;19;20930;-58
2022/02/10 09:57:21;;;;;;;19.37;8.00;;;;;;;4.95;100.00;100423.78;7390949;19;20459;-56
2022/02/10 10:02:46;;;;;;;17.47;8.50;;;;;;;4.96;100.00;100420.41;7394422;19;20457;-53
2022/02/10 10:05:28;;;;;;;18.07;8.43;;;;;;;4.92;100.00;100417.59;7393736;19;20398;-57
2022/02/10 10:08:17;;;;;;;25.57;9.83;;;;;;;4.92;100.00;100398.00;7393120;19;20404;-57
2022/02/10 10:11:00;;;;;;;15.90;5.73;;;;;;;4.93;100.00;100404.88;7389097;19;20412;-58
2022/02/10 10:13:55;;;;;;;17.93;9.53;;;;;;;5.04;100.00;100394.41;7394750;19;20388;-58
2022/02/10 10:16:41;;;;;;;18.13;8.00;;;;;;;5.04;100.00;100407.19;7392128;19;20439;-52
2022/02/10 10:19:26;;;;;;;23.37;11.03;;;;;;;5.20;100.00;100414.09;7394356;19;20835;-56
2022/02/10 10:22:17;;;;;;;23.40;10.27;;;;;;;5.24;100.00;100411.78;7391148;19;20420;-59
2022/02/10 10:25:13;;;;;;;34.40;7.43;;;;;;;5.08;100.00;100419.38;7398236;19;20743;-56
2022/02/10 10:44:16;;;;;;;19.80;8.13;;;;;;;5.19;100.00;100436.25;7390246;19;20426;-57
2022/02/10 10:50:51;;;;;;;17.23;7.67;;;;;;;5.18;100.00;100428.47;7386299;19;20966;-57
2022/02/10 10:53:28;;;;;;;18.47;7.93;;;;;;;5.20;100.00;100432.00;7393288;19;20386;-57
2022/02/10 10:56:07;;;;;;;14.80;7.60;;;;;;;5.20;100.00;100439.66;7388778;19;20416;-56
2022/02/10 10:58:42;;;;;;;15.27;7.53;;;;;;;5.25;100.00;100439.16;7392000;19;20404;-56
2022/02/10 11:03:40;;;;;;;17.30;7.10;;;;;;;5.30;100.00;100428.28;7386718;19;20403;-56
2022/02/10 11:38:14;;;;;;;16.70;7.30;;;;;;;5.86;100.00;100516.81;7394751;19;20466;-56
2022/02/10 11:41:36;;;;;;;16.73;7.03;;;;;;;5.84;100.00;100520.09;7389107;19;20454;-58
2022/02/10 12:30:15;;;;;;;11.13;3.10;;;;;;;6.13;100.00;100741.19;7396103;19;20404;-59
2022/02/10 13:23:29;;;;;;;8.67;1.93;;;;;;;6.04;100.00;100860.25;7399611;19;20383;-57
2022/02/10 14:13:07;;;;;;;13.00;2.50;;;;;;;5.70;100.00;100831.63;7393337;19;20407;-59
2022/02/10 14:15:54;;;;;;;8.10;1.73;;;;;;;5.68;100.00;100823.84;7391262;19;20411;-59
2022/02/10 14:18:28;;;;;;;18.60;3.10;;;;;;;5.66;100.00;100821.16;7394021;19;20466;-59
2022/02/10 14:21:07;;;;;;;9.37;1.80;;;;;;;5.79;100.00;100827.06;7390558;19;20395;-58
2022/02/10 14:26:32;;;;;;;8.00;1.73;;;;;;;5.90;100.00;100835.44;7391631;19;20430;-58
2022/02/10 14:29:02;;;;;;;8.90;1.60;;;;;;;5.83;100.00;100836.72;7392087;19;20487;-56
2022/02/10 14:31:31;;;;;;;4.73;1.70;;;;;;;5.78;100.00;100838.09;7389306;19;20419;-59
2022/02/10 14:34:01;;;;;;;10.03;1.70;;;;;;;5.72;100.00;100840.28;7394032;19;20393;-58
2022/02/10 14:36:40;;;;;;;10.83;2.00;;;;;;;5.70;100.00;100845.31;7391745;19;20447;-59
2022/02/10 14:39:53;;;;;;;6.60;2.13;;;;;;;5.65;100.00;100849.25;7390890;19;20938;-57
2022/02/10 15:20:46;;;;;;;8.07;2.40;;;;;;;4.26;100.00;100826.59;7391660;19;20392;-60
2022/02/10 15:21:49;;;;;;;8.27;4.47;;;;;;;4.09;100.00;100822.91;7389068;19;20415;-58
2022/02/10 15:55:34;;;;;;;8.50;2.30;;;;;;;4.08;100.00;100805.78;7394169;19;20388;-54
2022/02/10 16:12:24;;;;;;;14.63;2.47;;;;;;;3.92;100.00;100808.19;7394799;19;20411;-58
2022/02/10 16:14:53;;;;;;;16.73;2.80;;;;;;;3.94;100.00;100812.50;7398134;19;20402;-56
2022/02/10 16:17:27;;;;;;;10.03;2.60;;;;;;;3.90;100.00;100807.19;7390749;19;20417;-59
2022/02/10 16:20:05;;;;;;;13.60;3.50;;;;;;;3.97;100.00;100810.16;7395895;19;20972;-55
2022/02/10 16:22:38;;;;;;;9.50;2.93;;;;;;;3.94;100.00;100805.72;7397329;19;20745;-57
2022/02/10 16:25:10;;;;;;;12.83;3.10;;;;;;;3.91;100.00;100810.63;7390062;19;20395;-54
2022/02/10 16:27:48;;;;;;;7.23;2.90;;;;;;;3.92;100.00;100822.59;7398988;19;20391;-59
2022/02/10 16:30:20;;;;;;;9.50;2.77;;;;;;;4.11;100.00;100824.75;7390872;19;20423;-55
2022/02/10 16:33:12;;;;;;;7.40;2.20;;;;;;;4.15;100.00;100834.41;7395632;19;20343;-57
2022/02/10 16:36:02;;;;;;;17.60;2.50;;;;;;;4.04;100.00;100845.53;7393218;19;20989;-59
2022/02/10 16:38:52;;;;;;;22.90;9.10;;;;;;;4.05;100.00;100866.09;7395330;19;20403;-55
2022/02/10 16:41:41;;;;;;;10.83;2.67;;;;;;;4.00;100.00;100869.09;7392479;19;20414;-54
2022/02/10 16:44:31;;;;;;;7.47;2.20;;;;;;;3.94;100.00;100884.00;7395033;19;20445;-57
2022/02/10 16:47:01;;;;;;;9.13;1.90;;;;;;;3.92;100.00;100889.88;7393649;19;20406;-56
2022/02/10 16:49:53;;;;;;;14.83;3.00;;;;;;;3.94;100.00;100900.19;7393643;19;20788;-57
2022/02/10 16:52:46;;;;;;;11.27;3.30;;;;;;;3.92;100.00;100899.19;7396354;19;20753;-57
2022/02/10 16:55:44;;;;;;;12.43;3.93;;;;;;;3.97;100.00;100900.41;7386526;19;20748;-59
2022/02/10 16:58:38;;;;;;;26.03;3.70;;;;;;;4.01;100.00;100912.59;7393675;19;20396;-56
2022/02/10 17:01:44;;;;;;;18.13;3.60;;;;;;;3.97;100.00;100909.72;7391935;19;20499;-57
2022/02/10 17:04:56;;;;;;;11.20;2.90;;;;;;;3.85;100.00;100910.63;7397101;19;20392;-56
2022/02/10 17:25:26;;;;;;;12.30;3.87;;;;;;;3.83;100.00;100908.75;7393513;19;20384;-56
2022/02/10 17:28:00;;;;;;;15.20;2.97;;;;;;;3.77;100.00;100911.75;7396055;19;20390;-53
2022/02/10 17:31:03;;;;;;;11.83;3.23;;;;;;;3.75;100.00;100914.19;7392281;19;20426;-58
2022/02/10 17:33:37;;;;;;;8.50;2.30;;;;;;;3.75;100.00;100908.22;7395772;19;20388;-58
2022/02/10 17:36:15;;;;;;;15.37;3.13;;;;;;;3.63;100.00;100909.09;7390975;19;20933;-57
2022/02/10 17:41:43;;;;;;;14.73;3.07;;;;;;;3.57;100.00;100903.53;7388919;19;20432;-59
2022/02/10 17:46:59;;;;;;;15.77;3.13;;;;;;;3.49;100.00;100915.75;7385233;19;20415;-59
2022/02/10 17:52:16;;;;;;;26.63;2.57;;;;;;;3.45;100.00;100910.31;7384116;19;20437;-58
2022/02/10 17:54:47;;;;;;;8.10;2.30;;;;;;;3.44;100.00;100911.09;7395424;19;21044;-57
2022/02/10 17:57:19;;;;;;;18.60;3.10;;;;;;;3.44;100.00;100906.00;7385588;19;20922;-58
2022/02/10 17:59:48;;;;;;;15.03;3.30;;;;;;;3.40;100.00;100915.09;7393477;19;20761;-59
2022/02/10 18:02:18;;;;;;;12.53;1.93;;;;;;;3.36;100.00;100913.97;7389933;19;20400;-59
2022/02/10 18:04:47;;;;;;;13.40;2.67;;;;;;;3.36;100.00;100915.63;7394908;19;20398;-57
2022/02/10 18:07:17;;;;;;;17.73;3.13;;;;;;;3.35;100.00;100922.38;7387713;19;20415;-59
2022/02/10 18:15:29;;;;;;;20.43;2.80;;;;;;;3.32;100.00;100927.25;7393249;19;20430;-57
2022/02/10 18:18:12;;;;;;;15.80;2.67;;;;;;;3.26;100.00;100924.25;7394807;19;20391;-57
2022/02/10 18:20:48;;;;;;;10.90;2.37;;;;;;;3.30;100.00;100926.28;7391852;19;20419;-59
2022/02/10 18:23:29;;;;;;;15.43;3.13;;;;;;;3.26;100.00;100925.91;7395105;19;20391;-59
2022/02/10 18:26:05;;;;;;;13.27;2.60;;;;;;;3.27;100.00;100926.03;7391100;19;20415;-55
2022/02/10 18:28:56;;;;;;;6.53;1.80;;;;;;;3.24;100.00;100921.59;7393630;19;20395;-55
2022/02/10 19:09:39;;;;;;;14.53;3.40;;;;;;;3.13;100.00;100949.63;7389318;19;20839;-57
2022/02/10 19:12:16;;;;;;;8.30;2.50;;;;;;;3.16;100.00;100949.84;7389062;19;20758;-55
2022/02/10 19:14:52;;;;;;;7.47;2.00;;;;;;;3.07;100.00;100955.13;7393047;19;20399;-56
2022/02/10 19:17:27;;;;;;;23.23;2.10;;;;;;;3.01;100.00;100954.66;7391154;19;20419;-55
2022/02/10 19:19:56;;;;;;;10.93;2.03;;;;;;;2.99;100.00;100962.22;7399549;19;21144;-59
2022/02/10 19:22:26;;;;;;;15.30;2.73;;;;;;;2.95;100.00;100957.66;7396588;19;20441;-57
2022/02/10 19:24:55;;;;;;;8.37;1.60;;;;;;;2.89;100.00;100952.09;7400710;19;20401;-56
2022/02/10 19:27:25;;;;;;;6.50;2.10;;;;;;;2.86;100.00;100951.88;7399770;19;20988;-59
2022/02/10 19:29:57;;;;;;;8.03;2.07;;;;;;;2.88;100.00;100955.41;7401311;19;20404;-53
2022/02/10 19:32:32;;;;;;;5.63;1.20;;;;;;;2.82;100.00;100960.97;7400277;19;20446;-58
2022/02/10 19:35:01;;;;;;;9.00;2.10;;;;;;;2.90;100.00;100962.41;7399693;19;20390;-58
2022/02/10 19:37:31;;;;;;;13.63;3.37;;;;;;;2.91;100.00;100973.47;7400146;19;20450;-56
2022/02/10 19:40:03;;;;;;;37.23;7.07;;;;;;;2.88;100.00;100969.06;7398015;19;20415;-60
2022/02/10 19:42:36;;;;;;;14.50;3.80;;;;;;;2.79;100.00;100973.44;7399000;19;20415;-60
2022/02/10 19:45:08;;;;;;;14.17;3.40;;;;;;;2.87;100.00;100976.59;7400776;19;20406;-57
2022/02/10 19:47:41;;;;;;;28.17;5.63;;;;;;;2.78;100.00;100969.13;7398660;19;20387;-54
2022/02/10 19:50:14;;;;;;;11.00;2.90;;;;;;;2.77;100.00;100963.13;7393750;19;20431;-58
2022/02/10 19:52:49;;;;;;;8.13;1.90;;;;;;;2.75;100.00;100969.78;7402464;19;20928;-62
2022/02/10 19:55:22;;;;;;;19.97;2.50;;;;;;;2.67;100.00;100973.41;7396711;19;20935;-57
2022/02/10 19:57:56;;;;;;;6.97;2.13;;;;;;;2.68;100.00;100970.09;7399154;19;20379;-57
2022/02/10 20:00:31;;;;;;;7.20;2.10;;;;;;;2.59;100.00;100965.16;7393386;19;20414;-59
2022/02/10 20:03:11;;;;;;;15.30;2.57;;;;;;;2.59;100.00;100959.16;7398961;19;20391;-55
2022/02/10 20:05:45;;;;;;;7.63;2.13;;;;;;;2.56;100.00;100959.81;7394846;19;20937;-58
2022/02/10 20:08:16;;;;;;;6.80;2.00;;;;;;;2.50;100.00;100956.78;7398189;19;20367;-54
2022/02/10 20:10:45;;;;;;;18.03;2.03;;;;;;;2.45;100.00;100951.34;7390575;19;20478;-57
2022/02/10 20:13:16;;;;;;;8.13;2.13;;;;;;;2.47;100.00;100952.38;7398767;19;20924;-57
2022/02/10 20:15:46;;;;;;;6.50;2.47;;;;;;;2.45;100.00;100946.25;7395038;19;20421;-56
2022/02/10 20:18:19;;;;;;;10.57;2.07;;;;;;;2.45;100.00;100937.75;7397775;19;20420;-58
2022/02/10 20:20:53;;;;;;;8.37;2.00;;;;;;;2.42;100.00;100944.34;7392365;19;20499;-57
2022/02/10 20:23:23;;;;;;;13.97;3.07;;;;;;;2.46;100.00;100942.06;7399153;19;20941;-56
2022/02/10 20:26:09;;;;;;;6.80;2.30;;;;;;;2.46;100.00;100937.84;7395218;19;20438;-58
2022/02/10 20:28:38;;;;;;;13.73;3.07;;;;;;;2.48;100.00;100936.31;7397193;19;20392;-56
2022/02/10 20:31:08;;;;;;;13.23;2.70;;;;;;;2.46;100.00;100935.28;7393633;19;20431;-58
2022/02/10 20:33:41;;;;;;;13.17;2.80;;;;;;;2.47;100.00;100929.44;7401218;19;20395;-58
2022/02/10 20:36:12;;;;;;;6.77;1.37;;;;;;;2.46;100.00;100931.88;7396809;19;20429;-59
2022/02/10 20:38:45;;;;;;;15.67;2.30;;;;;;;2.43;100.00;100927.44;7396884;19;20446;-54
2022/02/10 20:41:17;;;;;;;21.40;3.07;;;;;;;2.43;100.00;100922.34;7394331;19;20501;-60
2022/02/10 20:43:49;;;;;;;12.33;2.90;;;;;;;2.41;100.00;100918.78;7397140;19;20390;-57
2022/02/10 20:46:19;;;;;;;18.47;3.20;;;;;;;2.47;100.00;100929.44;7394254;19;20416;-56
2022/02/10 20:48:53;;;;;;;25.37;3.20;;;;;;;2.44;100.00;100929.19;7396289;19;20391;-53
2022/02/10 20:51:23;;;;;;;12.73;2.03;;;;;;;2.61;100.00;100927.06;7393498;19;20506;-58
2022/02/10 20:53:54;;;;;;;13.30;2.80;;;;;;;2.55;100.00;100924.91;7396553;19;20387;-59
2022/02/10 20:56:25;;;;;;;13.83;2.83;;;;;;;2.53;100.00;100919.72;7394353;19;20389;-56
2022/02/10 20:58:59;;;;;;;12.13;2.60;;;;;;;2.43;100.00;100923.19;7395816;19;20467;-57
2022/02/10 21:01:29;;;;;;;16.93;4.23;;;;;;;2.54;100.00;100924.06;7394051;19;20443;-58
2022/02/10 21:04:02;;;;;;;9.30;3.03;;;;;;;2.54;100.00;100930.78;7397298;19;20392;-58
2022/02/10 21:06:47;;;;;;;7.87;2.17;;;;;;;2.43;100.00;100919.78;7396677;19;20442;-60
2022/02/10 21:09:22;;;;;;;8.93;3.07;;;;;;;2.43;100.00;100918.09;7398728;19;20483;-55
2022/02/10 21:11:57;;;;;;;11.93;4.33;;;;;;;2.43;100.00;100922.34;7393842;19;20431;-58
2022/02/10 21:14:29;;;;;;;10.83;2.70;;;;;;;2.40;100.00;100922.06;7400449;19;20419;-59
2022/02/10 21:17:05;;;;;;;18.30;2.10;;;;;;;2.35;100.00;100914.09;7393034;19;20518;-56
2022/02/10 21:19:42;;;;;;;20.77;3.40;;;;;;;2.37;100.00;100926.94;7394349;19;20990;-56
2022/02/10 21:22:16;;;;;;;10.53;2.63;;;;;;;2.37;100.00;100922.72;7392501;19;20427;-61
2022/02/10 21:24:51;;;;;;;13.17;3.20;;;;;;;2.37;100.00;100932.03;7395923;19;20427;-52
2022/02/10 21:30:07;;;;;;;10.83;2.70;;;;;;;2.27;100.00;100921.13;7385752;19;20938;-59
2022/02/10 21:32:43;;;;;;;15.30;2.93;;;;;;;2.26;100.00;100921.91;7393530;19;20394;-55
2022/02/10 21:35:24;;;;;;;16.97;2.80;;;;;;;2.26;100.00;100919.34;7393347;19;20933;-58
2022/02/10 21:37:58;;;;;;;13.53;2.70;;;;;;;2.26;100.00;100919.34;7399353;19;20725;-53
2022/02/10 21:40:56;;;;;;;10.87;2.67;;;;;;;2.25;100.00;100920.13;7390054;19;20478;-57
2022/02/10 21:54:39;;;;;;;6.30;1.80;;;;;;;2.16;100.00;100927.94;7395015;19;20383;-57
2022/02/10 22:00:24;;;;;;;10.27;2.70;;;;;;;2.14;100.00;100906.56;7391324;19;20435;-55
2022/02/10 22:09:03;;;;;;;14.63;2.70;;;;;;;2.14;100.00;100913.31;7395765;19;20203;-55
2022/02/10 22:11:56;;;;;;;11.97;2.70;;;;;;;2.15;100.00;100900.69;7393338;19;20435;-57
2022/02/10 22:17:14;;;;;;;7.23;2.03;;;;;;;2.18;100.00;100910.22;7392554;19;20443;-52
2022/02/10 22:19:46;;;;;;;18.50;3.60;;;;;;;2.19;100.00;100912.00;7392859;19;20416;-60
2022/02/10 22:22:23;;;;;;;9.17;1.87;;;;;;;2.15;100.00;100907.44;7390896;19;20423;-50
2022/02/10 22:24:58;;;;;;;12.73;2.80;;;;;;;2.15;100.00;100904.88;7394246;19;20739;-57
2022/02/10 22:27:30;;;;;;;17.00;3.03;;;;;;;2.16;100.00;100896.50;7392703;19;20213;-58
2022/02/10 22:30:05;;;;;;;29.60;3.95;;;;;;;2.18;100.00;100905.16;7392213;19;20418;-56
2022/02/10 22:32:47;;;;;;;7.57;2.40;;;;;;;2.16;100.00;100899.06;7392113;19;20189;-58
2022/02/10 22:35:17;;;;;;;11.03;2.60;;;;;;;2.17;100.00;100900.81;7390795;19;20475;-57
2022/02/10 22:37:52;;;;;;;13.68;2.20;;;;;;;2.13;100.00;100916.63;7397999;19;20500;-57
2022/02/10 22:40:40;;;;;;;13.03;3.03;;;;;;;2.17;100.00;100913.56;7380497;19;20162;-56
2022/02/10 22:43:09;;;;;;;9.90;3.10;;;;;;;2.13;100.00;100911.53;7393762;19;20400;-53
2022/02/10 22:45:39;;;;;;;9.20;2.50;;;;;;;2.12;100.00;100909.75;7390113;19;20410;-56
2022/02/10 22:48:09;;;;;;;8.00;2.47;;;;;;;2.14;100.00;100908.22;7392807;19;20392;-57
2022/02/10 22:50:38;;;;;;;11.60;2.47;;;;;;;2.08;100.00;100910.28;7385208;19;20478;-56
2022/02/10 22:53:08;;;;;;;6.30;2.67;;;;;;;2.12;100.00;100908.13;7389349;19;20460;-55
2022/02/10 22:55:41;;;;;;;7.83;2.30;;;;;;;2.12;100.00;100899.56;7390702;19;20780;-56
2022/02/10 22:58:11;;;;;;;21.17;2.80;;;;;;;2.11;100.00;100895.25;7392366;19;20406;-57
2022/02/10 23:00:46;;;;;;;39.90;3.40;;;;;;;2.10;100.00;100896.03;7388888;19;20772;-55
2022/02/10 23:03:18;;;;;;;15.60;3.30;;;;;;;2.08;100.00;100893.34;7393905;19;20383;-59
2022/02/10 23:05:48;;;;;;;18.30;2.40;;;;;;;2.05;100.00;100885.47;7387169;19;20960;-56
2022/02/10 23:08:19;;;;;;;10.63;2.23;;;;;;;2.05;100.00;100894.78;7392328;19;20917;-57
2022/02/10 23:10:52;;;;;;;14.87;2.53;;;;;;;2.07;100.00;100888.13;7388522;19;20411;-58
2022/02/10 23:13:26;;;;;;;16.10;2.93;;;;;;;2.10;100.00;100890.94;7391416;19;20390;-56
2022/02/10 23:15:56;;;;;;;6.65;1.73;;;;;;;2.04;100.00;100904.06;7387758;19;20945;-58
2022/02/10 23:18:28;;;;;;;6.83;2.37;;;;;;;2.06;100.00;100901.63;7391753;19;20170;-56
2022/02/10 23:20:58;;;;;;;8.77;2.67;;;;;;;2.07;100.00;100890.69;7387638;19;20445;-57
2022/02/10 23:23:30;;;;;;;13.43;3.40;;;;;;;2.04;100.00;100903.19;7397053;19;20408;-59
2022/02/10 23:26:04;;;;;;;14.27;2.73;;;;;;;2.00;100.00;100904.59;7393174;19;20415;-57
2022/02/10 23:28:36;;;;;;;15.00;3.15;;;;;;;2.01;100.00;100896.19;7393067;19;20747;-57
2022/02/10 23:31:07;;;;;;;13.33;2.40;;;;;;;1.95;100.00;100900.81;7389395;19;20186;-54
2022/02/10 23:33:39;;;;;;;17.13;2.78;;;;;;;1.95;100.00;100903.34;7390708;19;20414;-53
2022/02/10 23:38:59;;;;;;;11.50;3.00;;;;;;;1.96;100.00;100893.28;7391221;19;20396;-55
2022/02/10 23:44:23;;;;;;;6.73;2.33;;;;;;;1.93;100.00;100892.13;7387813;19;20382;-57
2022/02/10 23:46:53;;;;;;;13.53;3.03;;;;;;;1.94;100.00;100882.09;7385229;19;20403;-57
2022/02/10 23:49:24;;;;;;;16.17;3.05;;;;;;;1.95;100.00;100886.41;7387482;19;20408;-57
2022/02/10 23:51:57;;;;;;;14.98;2.13;;;;;;;1.94;100.00;100877.00;7384467;19;20527;-59
2022/02/10 23:54:28;;;;;;;20.17;2.50;;;;;;;1.96;100.00;100870.41;7388369;19;20131;-60
2022/02/10 23:57:05;;;;;;;12.33;3.80;;;;;;;1.90;100.00;100885.19;7385976;19;20439;-56
